Latest Weather Observations for Mardie

IDW60801

Issued at 7:32 am WST Friday 6 March 2015 (issued every 30 minutes, with the page automatically refreshed every 10 minutes)

About weather observations | Map of weather stations | Latest weather observations for WA | Other Formats
Station Details ID: 005008 Name: MARDIE Lat: -21.19 Lon: 115.98 Height: 11.0 m
Data from the previous 72 hours. | See also: Recent months at Mardie
Date/Time
WST
Temp
°C
App
Temp
°C
Dew
Point
Rel
Hum
%
Delta-T
°C
Wind Press
QNH
hPa
Press
MSL
hPa
Rain
since 9 am
mm
Dir
 
Spd
km/h
Gust
km/h
Spd
kts
Gust
kts
06/07:30am 28.0 33.6 28.0 100 0.0 E 15 19 8 10 1009.8 1009.7 1.4
06/07:00am 26.9 32.5 26.9 100 0.0 E 11 15 6 8 1009.6 1009.5 1.4
06/06:30am 26.2 32.1 26.2 100 0.0 E 7 11 4 6 1009.3 1009.2 1.4
06/06:00am 26.3 31.5 26.3 100 0.0 E 11 13 6 7 1009.0 1008.9 1.4
06/05:30am 26.4 32.1 26.4 100 0.0 ENE 9 13 5 7 1008.9 1008.8 1.4
06/05:00am 26.4 32.6 26.4 100 0.0 ENE 6 7 3 4 1008.5 1008.4 1.4
06/04:30am 26.5 32.6 26.5 100 0.0 ENE 7 9 4 5 1008.3 1008.2 1.4
06/04:00am 26.6 32.8 26.6 100 0.0 ENE 7 9 4 5 1008.4 1008.3 1.4
06/03:30am 26.5 31.8 26.5 100 0.0 NE 11 13 6 7 1008.3 1008.2 1.4
06/03:00am 26.6 32.4 26.6 100 0.0 NE 9 11 5 6 1008.4 1008.3 1.4
06/02:30am 26.7 33.1 26.7 100 0.0 NE 6 6 3 3 1008.7 1008.6 1.4
06/02:00am 26.9 33.5 26.9 100 0.0 NE 6 6 3 3 1008.9 1008.8 1.4
06/01:30am 26.9 33.5 26.9 100 0.0 NE 6 7 3 4 1009.2 1009.1 1.4
06/01:00am 27.1 33.6 27.1 100 0.0 NE 7 7 4 4 1009.4 1009.3 1.4
06/12:30am 27.4 34.7 27.4 100 0.0 NE 4 6 2 3 1009.7 1009.6 1.4
06/12:00am 27.6 35.8 27.6 100 0.0 CALM 0 0 0 0 1010.0 1009.9 1.4
 
Date/Time
WST
Temp
°C
App
Temp
°C
Dew
Point
Rel
Hum
%
Delta-T
°C
Wind Press
QNH
hPa
Press
MSL
hPa
Rain
since 9 am
mm
Dir
 
Spd
km/h
Gust
km/h
Spd
kts
Gust
kts
05/11:30pm 27.7 36.0 27.7 100 0.0 CALM 0 0 0 0 1010.2 1010.1 1.4
05/11:00pm 27.9 36.3 27.9 100 0.0 CALM 0 0 0 0 1010.4 1010.3 1.4
05/10:30pm 28.2 36.3 27.5 96 0.5 CALM 0 0 0 0 1010.4 1010.3 1.4
05/10:00pm 28.4 36.0 26.8 91 1.1 CALM 0 0 0 0 1010.6 1010.5 1.4
05/09:30pm 28.6 36.0 26.4 88 1.6 CALM 0 0 0 0 1010.6 1010.5 1.4
05/09:00pm 29.0 34.8 25.8 83 2.3 NE 6 6 3 3 1010.3 1010.2 1.4
05/08:30pm 29.3 34.5 24.8 77 3.1 NE 6 9 3 5 1010.0 1009.9 1.4
05/08:00pm 29.6 33.9 24.2 73 3.8 NNE 9 13 5 7 1009.8 1009.7 1.4
05/07:30pm 30.1 34.4 24.3 71 4.0 NE 9 13 5 7 1009.4 1009.3 1.4
05/07:00pm 30.5 33.8 23.9 68 4.6 NE 13 17 7 9 1008.8 1008.7 1.4
05/06:30pm 31.2 34.0 23.6 64 5.3 NNE 15 24 8 13 1008.4 1008.3 1.4
05/06:00pm 31.9 33.5 22.9 59 6.2 NE 19 26 10 14 1008.0 1007.9 1.4
05/05:30pm 32.3 33.4 22.4 56 6.8 NE 20 26 11 14 1007.6 1007.5 1.4
05/05:00pm 32.8 33.5 22.3 54 7.2 NE 22 32 12 17 1007.4 1007.3 1.4
05/04:30pm 33.0 33.3 21.5 50 7.8 ENE 22 30 12 16 1007.2 1007.1 1.4
05/04:00pm 33.0 32.1 21.5 50 7.8 ENE 28 35 15 19 1007.1 1007.0 1.4
05/03:30pm 33.3 33.4 21.8 51 7.8 NE 24 33 13 18 1007.1 1007.0 1.4
05/03:00pm 32.6 32.7 21.8 53 7.3 ENE 24 39 13 21 1007.5 1007.4 1.4
05/02:30pm 32.1 32.1 21.6 53 7.1 NE 24 32 13 17 1007.9 1007.8 1.4
05/02:00pm 31.9 31.0 21.4 53 7.1 ENE 28 37 15 20 1008.1 1008.0 1.4
05/01:30pm 31.7 31.9 22.7 59 6.2 ENE 26 35 14 19 1008.4 1008.3 1.4
05/01:00pm 30.7 30.9 22.0 59 5.9 ENE 24 35 13 19 1009.0 1008.9 1.4
05/12:30pm 30.7 32.2 23.1 64 5.2 E 20 32 11 17 1009.4 1009.3 1.4
05/12:00pm 28.4 30.7 23.5 75 3.4 ESE 17 24 9 13 1009.8 1009.7 1.4
05/11:30am 26.4 28.1 23.1 82 2.2 ESE 19 24 10 13 1010.0 1009.9 1.4
05/11:00am 25.6 29.1 24.2 92 1.0 ESE 13 17 7 9 1010.3 1010.2 1.4
05/10:30am 25.0 28.2 24.3 96 0.5 E 15 20 8 11 1010.5 1010.4 1.2
05/10:00am 24.7 28.5 24.7 100 0.0 ENE 13 17 7 9 1011.0 1011.0 1.2
05/09:30am 25.9 31.1 25.7 99 0.1 SE 9 13 5 7 1011.2 1011.2 0.2
05/09:00am 25.6 29.6 25.6 100 0.0 SSE 15 19 8 10 1010.8 1010.7 9.8
05/08:30am 25.2 28.2 25.2 100 0.0 SSE 19 24 10 13 1010.6 1010.5 9.8
05/08:00am 25.0 27.8 25.0 100 0.0 S 19 26 10 14 1009.9 1009.8 9.8
05/07:30am 24.6 28.0 24.6 100 0.0 S 15 20 8 11 1009.6 1009.5 9.8
05/07:00am 24.4 28.0 24.4 100 0.0 S 13 19 7 10 1009.3 1009.2 9.8
05/06:30am 24.1 27.2 24.1 100 0.0 S 15 20 8 11 1009.1 1009.0 9.8
05/06:00am 23.8 26.7 23.8 100 0.0 S 15 20 8 11 1009.0 1008.9 9.8
05/05:30am 23.8 25.7 23.8 100 0.0 SSW 20 26 11 14 1008.5 1008.4 9.8
05/05:00am 23.8 25.9 23.8 100 0.0 SSW 19 24 10 13 1008.6 1008.5 9.8
05/04:30am 23.6 25.4 23.6 100 0.0 SSW 20 30 11 16 1008.7 1008.6 9.6
05/04:00am 24.0 26.0 24.0 100 0.0 S 20 28 11 15 1009.1 1009.0 9.0
05/03:30am 24.2 27.7 24.2 100 0.0 SSE 13 17 7 9 1009.5 1009.4 8.6
05/03:00am 25.0 27.1 24.1 95 0.6 SSE 20 26 11 14 1009.5 1009.4 8.0
05/02:30am 25.1 29.1 25.1 100 0.0 SSE 13 17 7 9 1009.4 1009.3 7.6
05/02:00am 25.7 30.9 25.7 100 0.0 SSW 9 15 5 8 1009.6 1009.5 6.6
05/01:30am 25.9 31.8 25.9 100 0.0 SSW 6 7 3 4 1009.6 1009.5 6.6
05/01:00am 25.6 31.7 25.6 100 0.0 SSW 4 6 2 3 1010.2 1010.1 6.4
05/12:30am 25.4 30.4 25.4 100 0.0 SSW 9 9 5 5 1009.8 1009.7 6.2
05/12:00am 25.3 29.9 25.3 100 0.0 SSW 11 15 6 8 1010.0 1009.9 6.2
 
Date/Time
WST
Temp
°C
App
Temp
°C
Dew
Point
Rel
Hum
%
Delta-T
°C
Wind Press
QNH
hPa
Press
MSL
hPa
Rain
since 9 am
mm
Dir
 
Spd
km/h
Gust
km/h
Spd
kts
Gust
kts
04/11:30pm 25.7 30.1 25.7 100 0.0 SSW 13 17 7 9 1010.5 1010.4 6.2
04/11:00pm 26.1 31.2 26.1 100 0.0 SSW 11 17 6 9 1010.7 1010.6 6.2
04/10:30pm 25.8 32.0 25.8 100 0.0 NNW 4 7 2 4 1011.0 1011.0 6.2
04/10:00pm 25.2 31.0 25.2 100 0.0 NNW 4 9 2 5 1010.5 1010.4 6.0
04/09:30pm 24.7 29.3 24.7 100 0.0 NW 9 15 5 8 1010.1 1010.0 6.0
04/09:00pm 24.8 29.4 24.8 100 0.0 ENE 9 13 5 7 1009.6 1009.5 5.8
04/08:30pm 24.9 25.2 24.9 100 0.0 E 32 43 17 23 1009.8 1009.7 1.6
04/08:00pm 26.1 25.2 23.2 84 2.0 E 33 46 18 25 1009.6 1009.5 0.0
04/07:57pm 27.4 27.5 23.2 78 2.9 ENE 28 46 15 25 1009.5 1009.4 0.0
04/07:30pm 29.5 31.8 24.4 74 3.6 N 20 28 11 15 1008.4 1008.3 0.0
04/07:00pm 29.9 32.3 24.3 72 3.9 N 19 28 10 15 1008.1 1008.0 0.0
04/06:30pm 30.9 33.3 24.3 68 4.6 N 19 28 10 15 1007.6 1007.5 0.0
04/06:00pm 34.0 34.5 20.0 43 9.3 NE 17 24 9 13 1007.2 1007.1 0.0
04/05:30pm 34.2 35.0 19.8 42 9.6 NE 15 26 8 14 1006.7 1006.6 0.0
04/05:00pm 34.8 34.0 19.2 39 10.3 E 22 32 12 17 1006.5 1006.4 0.0
04/04:30pm 35.4 34.2 18.5 37 11.1 NE 22 32 12 17 1006.4 1006.3 0.0
04/04:00pm 34.4 33.2 18.4 38 10.4 ENE 22 33 12 18 1006.6 1006.5 0.0
04/03:30pm 34.1 32.5 20.1 43 9.3 NE 28 39 15 21 1006.8 1006.7 0.0
04/03:00pm 32.8 31.7 21.0 50 7.9 ENE 28 37 15 20 1007.2 1007.1 0.0
04/02:30pm 33.5 31.1 21.0 48 8.4 ENE 35 46 19 25 1007.4 1007.3 0.0
04/02:00pm 35.8 32.9 20.1 40 10.5 NE 35 48 19 26 1007.2 1007.1 0.0
04/01:53pm 35.4 33.3 19.7 39 10.4 NE 30 48 16 26 1007.1 1007.0 0.0
04/01:30pm 35.5 34.8 19.4 38 10.7 NE 22 30 12 16 1007.2 1007.1 0.0
04/01:00pm 35.7 34.7 19.6 39 10.7 ENE 24 39 13 21 1007.6 1007.5 0.0
04/12:30pm 35.4 35.2 19.3 38 10.7 ENE 19 32 10 17 1007.9 1007.8 0.0
04/12:00pm 35.0 34.1 19.0 39 10.5 E 22 39 12 21 1008.2 1008.1 0.0
04/11:30am 35.7 34.5 19.2 38 10.9 E 24 41 13 22 1008.3 1008.2 0.0
04/11:00am 36.0 35.3 19.4 37 11.0 E 22 33 12 18 1008.2 1008.1 0.0
04/10:30am 34.7 34.8 19.9 42 9.9 ESE 19 32 10 17 1008.8 1008.7 0.0
04/10:00am 33.1 33.7 20.3 47 8.5 ESE 17 26 9 14 1008.9 1008.8 0.0
04/09:30am 31.4 33.4 20.7 53 7.1 E 11 20 6 11 1009.0 1008.9 0.0
04/09:00am 31.3 31.7 20.6 53 7.1 ESE 19 28 10 15 1009.0 1008.9 0.0
04/08:30am 30.6 33.0 20.8 56 6.5 ESE 9 19 5 10 1009.0 1008.9 0.0
04/08:00am 29.6 33.8 21.8 63 5.3 S 2 4 1 2 1009.3 1009.2 0.0
04/07:30am 28.2 31.7 22.2 70 4.0 SSE 7 11 4 6 1009.4 1009.3 0.0
04/07:00am 27.4 30.6 21.2 69 4.1 SE 6 6 3 3 1009.3 1009.2 0.0
04/06:30am 26.7 29.5 20.5 69 4.1 SW 6 6 3 3 1008.7 1008.6 0.0
04/06:00am 26.7 29.5 20.5 69 4.1 SW 6 6 3 3 1008.3 1008.2 0.0
04/05:30am 27.1 31.2 20.7 68 4.2 CALM 0 0 0 0 1008.2 1008.1 0.0
04/05:00am 27.2 31.4 21.0 69 4.1 CALM 0 0 0 0 1007.9 1007.8 0.0
04/04:30am 27.1 31.4 21.2 70 3.9 CALM 0 0 0 0 1007.9 1007.8 0.0
04/04:00am 27.0 30.5 21.1 70 3.9 SW 4 6 2 3 1007.8 1007.7 0.0
04/03:30am 27.1 31.0 21.2 70 3.9 SW 2 4 1 2 1007.7 1007.6 0.0
04/03:00am 27.3 30.5 21.3 69 4.0 SW 6 6 3 3 1007.8 1007.7 0.0
04/02:30am 27.5 30.7 21.3 69 4.1 SW 6 6 3 3 1007.8 1007.7 0.0
04/02:00am 27.4 31.2 21.7 71 3.8 SW 4 6 2 3 1008.0 1007.9 0.0
04/01:30am 27.5 31.0 21.8 71 3.8 SW 6 9 3 5 1008.1 1008.0 0.0
04/01:00am 27.6 30.6 21.9 71 3.8 SW 9 13 5 7 1008.5 1008.4 0.0
04/12:30am 27.9 29.9 22.2 71 3.8 SW 15 20 8 11 1008.8 1008.7 0.0
04/12:00am 28.1 30.1 22.3 70 3.9 WSW 15 20 8 11 1009.0 1008.9 0.0
 
Date/Time
WST
Temp
°C
App
Temp
°C
Dew
Point
Rel
Hum
%
Delta-T
°C
Wind Press
QNH
hPa
Press
MSL
hPa
Rain
since 9 am
mm
Dir
 
Spd
km/h
Gust
km/h
Spd
kts
Gust
kts
03/11:30pm 28.1 29.8 22.3 70 3.9 WSW 17 20 9 11 1009.1 1009.0 0.0
03/11:00pm 28.3 30.4 22.5 71 3.9 WSW 15 20 8 11 1009.2 1009.1 0.0
03/10:30pm 28.7 31.7 22.0 67 4.5 W 9 15 5 8 1009.3 1009.2 0.0
03/10:00pm 28.8 31.7 21.8 66 4.7 W 9 15 5 8 1009.4 1009.3 0.0
03/09:30pm 28.8 31.2 22.3 68 4.4 W 13 19 7 10 1009.2 1009.1 0.0
03/09:00pm 28.8 32.0 23.0 71 4.0 WNW 11 15 6 8 1008.9 1008.8 0.0
03/08:30pm 29.0 32.3 23.2 71 4.0 WNW 11 17 6 9 1008.5 1008.4 0.0
03/08:00pm 29.0 32.3 23.2 71 4.0 WNW 11 15 6 8 1008.2 1008.1 0.0
03/07:30pm 29.3 32.3 23.3 70 4.1 WNW 13 19 7 10 1007.3 1007.2 0.0
03/07:00pm 29.5 32.1 22.7 67 4.6 NW 13 19 7 10 1006.9 1006.8 0.0
03/06:30pm 29.9 32.5 22.6 65 5.0 NW 13 20 7 11 1006.3 1006.2 0.0
03/06:00pm 29.9 31.2 22.6 65 5.0 NW 20 28 11 15 1005.7 1005.6 0.0
03/05:30pm 30.5 31.4 22.7 63 5.3 NW 22 28 12 15 1005.6 1005.5 0.0
03/05:00pm 31.1 31.6 21.9 58 6.2 NW 22 32 12 17 1005.5 1005.4 0.0
03/04:30pm 31.9 31.4 21.4 53 7.1 NW 26 35 14 19 1005.3 1005.2 0.0
03/04:00pm 32.5 31.5 19.7 46 8.5 NW 24 33 13 18 1005.2 1005.1 0.0
03/03:30pm 32.9 32.3 20.4 47 8.3 NW 24 33 13 18 1005.3 1005.2 0.0
03/03:00pm 33.2 32.2 20.4 47 8.6 NW 26 33 14 18 1005.5 1005.4 0.0
03/02:30pm 33.3 31.8 19.4 44 9.2 NW 26 35 14 19 1005.9 1005.8 0.0
03/02:00pm 33.8 33.8 20.9 46 8.7 NW 22 32 12 17 1006.2 1006.1 0.0
03/01:30pm 32.7 33.2 21.2 50 7.7 NW 20 32 11 17 1006.6 1006.5 0.0
03/01:00pm 34.2 35.3 21.9 48 8.4 NW 19 28 10 15 1006.7 1006.6 0.0
03/12:30pm 32.9 33.9 21.7 51 7.6 WNW 19 30 10 16 1007.2 1007.1 0.0
03/12:00pm 32.9 34.2 21.7 51 7.6 WNW 17 26 9 14 1007.4 1007.3 0.0
03/11:30am 33.4 35.6 21.9 51 7.8 WNW 13 22 7 12 1007.5 1007.4 0.0
03/11:00am 32.1 34.2 21.0 52 7.5 WNW 11 22 6 12 1008.1 1008.0 0.0
03/10:30am 31.9 34.7 20.8 51 7.4 W 7 17 4 9 1008.3 1008.2 0.0
03/10:00am 31.8 35.2 21.0 52 7.2 WNW 4 9 2 5 1008.4 1008.3 0.0
03/09:30am 30.1 32.4 20.6 56 6.3 W 9 22 5 12 1008.4 1008.3 0.0
03/09:00am 29.8 32.0 21.2 60 5.8 WSW 11 19 6 10 1008.5 1008.4 0.0
03/08:30am 28.6 30.0 21.1 64 5.0 WSW 15 20 8 11 1008.3 1008.2 0.0
03/08:00am 28.2 30.7 21.0 65 4.8 WSW 9 17 5 9 1008.4 1008.3 0.0

Other Formats:

Comma delimited format used in spreadsheet applications
http://www.bom.gov.au/fwo/IDW60801/IDW60801.94306.axf

JavaScript Object Notation format (JSON) in row-major order
http://www.bom.gov.au/fwo/IDW60801/IDW60801.94306.json